Al Hulwah, Saudi Arabia
Current Conditions -  °F | °C
As of 4:00 AM on Thursday 27 Nov 2014 (Local Time) from OEKJ Reporting Station
Clear Clear  
Wind Chill: 57°   Ceiling: Unl
Heat Index: 57°   Visibility: 4mi
Dew Point: 52°   Wind: 3mph
Humidity: 82%   Direction: NA
Pressure: 30.09"   Gusts: NA
Location:  23.45°N, 46.78°E
Report Text: OEKJ 270100Z VRB03KT 7000 NSC 14/11 Q1019
Loading
Personal Weather Stations






























Interactive Weather Map New forecast layout! Learn more

10-Day Weather Forecast

Advertisements
Track Severe Weather on mobile